sensor_id;sensor_type;location;lat;lon;timestamp;P1;durP1;ratioP1;P2;durP2;ratioP2
59338;SDS011;45117;50.960;5.500;2023-08-06T00:01:13;5.00;;;2.72;;
59338;SDS011;45117;50.960;5.500;2023-08-06T00:03:40;5.38;;;2.53;;
59338;SDS011;45117;50.960;5.500;2023-08-06T00:06:06;5.82;;;2.13;;
59338;SDS011;45117;50.960;5.500;2023-08-06T00:08:34;4.82;;;2.00;;
59338;SDS011;45117;50.960;5.500;2023-08-06T00:11:01;3.85;;;1.75;;
59338;SDS011;45117;50.960;5.500;2023-08-06T00:13:28;4.32;;;2.03;;
59338;SDS011;45117;50.960;5.500;2023-08-06T00:15:54;5.13;;;1.73;;
59338;SDS011;45117;50.960;5.500;2023-08-06T00:18:21;3.28;;;1.40;;
59338;SDS011;45117;50.960;5.500;2023-08-06T00:20:48;3.30;;;1.40;;
59338;SDS011;45117;50.960;5.500;2023-08-06T00:23:14;1.85;;;1.00;;
59338;SDS011;45117;50.960;5.500;2023-08-06T00:25:42;2.70;;;1.10;;
59338;SDS011;45117;50.960;5.500;2023-08-06T00:28:10;3.75;;;1.33;;
59338;SDS011;45117;50.960;5.500;2023-08-06T00:30:37;2.55;;;1.10;;
59338;SDS011;45117;50.960;5.500;2023-08-06T00:33:03;3.33;;;1.20;;
59338;SDS011;45117;50.960;5.500;2023-08-06T00:35:31;2.92;;;1.10;;
59338;SDS011;45117;50.960;5.500;2023-08-06T00:37:58;3.45;;;1.15;;
59338;SDS011;45117;50.960;5.500;2023-08-06T00:40:25;2.90;;;1.10;;
59338;SDS011;45117;50.960;5.500;2023-08-06T00:42:54;1.55;;;0.93;;
59338;SDS011;45117;50.960;5.500;2023-08-06T00:45:22;6.63;;;1.17;;
59338;SDS011;45117;50.960;5.500;2023-08-06T00:47:49;2.35;;;1.10;;
59338;SDS011;45117;50.960;5.500;2023-08-06T00:50:16;3.35;;;1.15;;
59338;SDS011;45117;50.960;5.500;2023-08-06T00:52:42;1.95;;;0.88;;
59338;SDS011;45117;50.960;5.500;2023-08-06T00:55:09;2.78;;;0.82;;
59338;SDS011;45117;50.960;5.500;2023-08-06T00:57:36;3.45;;;1.10;;
59338;SDS011;45117;50.960;5.500;2023-08-06T01:00:05;3.95;;;1.10;;
59338;SDS011;45117;50.960;5.500;2023-08-06T01:02:32;2.47;;;0.88;;
59338;SDS011;45117;50.960;5.500;2023-08-06T01:04:59;2.42;;;1.10;;
59338;SDS011;45117;50.960;5.500;2023-08-06T01:07:30;2.72;;;0.90;;
59338;SDS011;45117;50.960;5.500;2023-08-06T01:10:12;1.60;;;0.88;;
59338;SDS011;45117;50.960;5.500;2023-08-06T01:12:48;2.42;;;1.10;;
59338;SDS011;45117;50.960;5.500;2023-08-06T01:15:24;4.60;;;1.70;;
59338;SDS011;45117;50.960;5.500;2023-08-06T01:21:26;3.15;;;1.20;;
59338;SDS011;45117;50.960;5.500;2023-08-06T01:23:52;2.60;;;1.10;;
59338;SDS011;45117;50.960;5.500;2023-08-06T01:26:22;4.28;;;1.20;;
59338;SDS011;45117;50.960;5.500;2023-08-06T01:28:56;3.08;;;1.10;;
59338;SDS011;45117;50.960;5.500;2023-08-06T01:31:34;4.75;;;1.10;;
59338;SDS011;45117;50.960;5.500;2023-08-06T01:34:04;3.20;;;1.00;;
59338;SDS011;45117;50.960;5.500;2023-08-06T01:36:35;3.22;;;1.45;;
59338;SDS011;45117;50.960;5.500;2023-08-06T01:39:02;4.05;;;1.52;;
59338;SDS011;45117;50.960;5.500;2023-08-06T01:41:31;4.63;;;1.58;;
59338;SDS011;45117;50.960;5.500;2023-08-06T01:43:57;3.85;;;1.67;;
59338;SDS011;45117;50.960;5.500;2023-08-06T01:46:24;3.13;;;1.70;;
59338;SDS011;45117;50.960;5.500;2023-08-06T01:48:53;3.88;;;1.80;;
59338;SDS011;45117;50.960;5.500;2023-08-06T01:51:20;3.22;;;1.50;;
59338;SDS011;45117;50.960;5.500;2023-08-06T01:53:48;3.13;;;1.58;;
59338;SDS011;45117;50.960;5.500;2023-08-06T01:56:15;4.03;;;1.65;;
59338;SDS011;45117;50.960;5.500;2023-08-06T01:58:41;3.97;;;1.52;;
59338;SDS011;45117;50.960;5.500;2023-08-06T02:01:08;3.70;;;1.60;;
59338;SDS011;45117;50.960;5.500;2023-08-06T02:03:35;3.60;;;1.60;;
59338;SDS011;45117;50.960;5.500;2023-08-06T02:06:02;2.58;;;1.40;;
59338;SDS011;45117;50.960;5.500;2023-08-06T02:08:28;2.60;;;1.90;;
59338;SDS011;45117;50.960;5.500;2023-08-06T02:10:56;4.45;;;1.63;;
59338;SDS011;45117;50.960;5.500;2023-08-06T02:13:24;3.58;;;1.40;;
59338;SDS011;45117;50.960;5.500;2023-08-06T02:15:51;3.22;;;1.63;;
59338;SDS011;45117;50.960;5.500;2023-08-06T02:18:17;2.25;;;1.30;;
59338;SDS011;45117;50.960;5.500;2023-08-06T02:20:44;3.10;;;1.40;;
59338;SDS011;45117;50.960;5.500;2023-08-06T02:23:22;2.03;;;1.27;;
59338;SDS011;45117;50.960;5.500;2023-08-06T02:25:48;3.35;;;1.48;;
59338;SDS011;45117;50.960;5.500;2023-08-06T02:28:23;2.40;;;1.60;;
59338;SDS011;45117;50.960;5.500;2023-08-06T02:30:50;3.72;;;1.08;;
59338;SDS011;45117;50.960;5.500;2023-08-06T02:33:17;3.40;;;1.20;;
59338;SDS011;45117;50.960;5.500;2023-08-06T02:35:43;2.70;;;1.13;;
59338;SDS011;45117;50.960;5.500;2023-08-06T02:38:10;2.88;;;1.40;;
59338;SDS011;45117;50.960;5.500;2023-08-06T02:40:42;3.80;;;1.30;;
59338;SDS011;45117;50.960;5.500;2023-08-06T02:43:09;3.42;;;1.30;;
59338;SDS011;45117;50.960;5.500;2023-08-06T02:45:37;2.97;;;1.40;;
59338;SDS011;45117;50.960;5.500;2023-08-06T02:48:07;2.13;;;0.95;;
59338;SDS011;45117;50.960;5.500;2023-08-06T02:50:37;1.83;;;1.20;;
59338;SDS011;45117;50.960;5.500;2023-08-06T02:53:05;1.55;;;1.20;;
59338;SDS011;45117;50.960;5.500;2023-08-06T02:55:32;2.90;;;1.20;;
59338;SDS011;45117;50.960;5.500;2023-08-06T02:57:59;1.60;;;0.90;;
59338;SDS011;45117;50.960;5.500;2023-08-06T03:00:25;2.33;;;1.10;;
59338;SDS011;45117;50.960;5.500;2023-08-06T03:02:53;2.47;;;1.00;;
59338;SDS011;45117;50.960;5.500;2023-08-06T03:05:20;3.40;;;1.50;;
59338;SDS011;45117;50.960;5.500;2023-08-06T03:07:47;2.63;;;1.27;;
59338;SDS011;45117;50.960;5.500;2023-08-06T03:10:14;2.67;;;1.40;;
59338;SDS011;45117;50.960;5.500;2023-08-06T03:12:40;1.85;;;1.30;;
59338;SDS011;45117;50.960;5.500;2023-08-06T03:15:07;3.33;;;1.50;;
59338;SDS011;45117;50.960;5.500;2023-08-06T03:17:35;4.03;;;1.50;;
59338;SDS011;45117;50.960;5.500;2023-08-06T03:20:03;2.97;;;1.33;;
59338;SDS011;45117;50.960;5.500;2023-08-06T03:22:31;4.10;;;1.70;;
59338;SDS011;45117;50.960;5.500;2023-08-06T03:27:41;3.60;;;1.95;;
59338;SDS011;45117;50.960;5.500;2023-08-06T03:30:08;5.70;;;2.90;;
59338;SDS011;45117;50.960;5.500;2023-08-06T03:32:35;4.10;;;2.80;;
59338;SDS011;45117;50.960;5.500;2023-08-06T03:35:01;5.10;;;3.17;;
59338;SDS011;45117;50.960;5.500;2023-08-06T03:37:30;4.63;;;3.28;;
59338;SDS011;45117;50.960;5.500;2023-08-06T03:39:56;4.25;;;3.10;;
59338;SDS011;45117;50.960;5.500;2023-08-06T03:42:23;7.43;;;3.50;;
59338;SDS011;45117;50.960;5.500;2023-08-06T03:44:50;5.70;;;2.83;;
59338;SDS011;45117;50.960;5.500;2023-08-06T03:47:16;4.93;;;3.25;;
59338;SDS011;45117;50.960;5.500;2023-08-06T03:49:43;4.88;;;3.00;;
59338;SDS011;45117;50.960;5.500;2023-08-06T03:52:10;6.72;;;3.42;;
59338;SDS011;45117;50.960;5.500;2023-08-06T03:54:38;5.57;;;3.05;;
59338;SDS011;45117;50.960;5.500;2023-08-06T03:57:04;4.88;;;3.05;;
59338;SDS011;45117;50.960;5.500;2023-08-06T03:59:31;4.43;;;2.97;;
59338;SDS011;45117;50.960;5.500;2023-08-06T04:01:58;5.32;;;3.20;;
59338;SDS011;45117;50.960;5.500;2023-08-06T04:04:25;4.13;;;3.00;;
59338;SDS011;45117;50.960;5.500;2023-08-06T04:06:52;3.50;;;2.60;;
59338;SDS011;45117;50.960;5.500;2023-08-06T04:09:18;4.90;;;2.70;;
59338;SDS011;45117;50.960;5.500;2023-08-06T04:11:46;4.15;;;2.80;;
59338;SDS011;45117;50.960;5.500;2023-08-06T04:14:13;4.38;;;2.58;;
59338;SDS011;45117;50.960;5.500;2023-08-06T04:16:40;4.05;;;2.65;;
59338;SDS011;45117;50.960;5.500;2023-08-06T04:19:06;8.18;;;3.28;;
59338;SDS011;45117;50.960;5.500;2023-08-06T04:21:33;4.60;;;2.80;;
59338;SDS011;45117;50.960;5.500;2023-08-06T04:24:00;5.32;;;3.05;;
59338;SDS011;45117;50.960;5.500;2023-08-06T04:26:27;3.60;;;2.88;;
59338;SDS011;45117;50.960;5.500;2023-08-06T04:28:55;4.63;;;2.83;;
59338;SDS011;45117;50.960;5.500;2023-08-06T04:31:21;6.25;;;3.20;;
59338;SDS011;45117;50.960;5.500;2023-08-06T04:33:49;6.13;;;3.40;;
59338;SDS011;45117;50.960;5.500;2023-08-06T04:36:18;7.55;;;3.40;;
59338;SDS011;45117;50.960;5.500;2023-08-06T04:38:45;5.65;;;3.38;;
59338;SDS011;45117;50.960;5.500;2023-08-06T04:41:12;4.40;;;3.00;;
59338;SDS011;45117;50.960;5.500;2023-08-06T04:43:40;9.00;;;3.35;;
59338;SDS011;45117;50.960;5.500;2023-08-06T04:46:09;6.43;;;3.60;;
59338;SDS011;45117;50.960;5.500;2023-08-06T04:48:37;4.97;;;3.33;;
59338;SDS011;45117;50.960;5.500;2023-08-06T04:51:04;9.70;;;3.75;;
59338;SDS011;45117;50.960;5.500;2023-08-06T04:53:31;5.90;;;3.08;;
59338;SDS011;45117;50.960;5.500;2023-08-06T04:55:58;5.10;;;2.95;;
59338;SDS011;45117;50.960;5.500;2023-08-06T04:58:25;4.63;;;3.13;;
59338;SDS011;45117;50.960;5.500;2023-08-06T05:00:52;5.63;;;3.28;;
59338;SDS011;45117;50.960;5.500;2023-08-06T05:03:21;6.70;;;3.85;;
59338;SDS011;45117;50.960;5.500;2023-08-06T05:05:48;5.03;;;3.40;;
59338;SDS011;45117;50.960;5.500;2023-08-06T05:08:15;5.32;;;3.58;;
59338;SDS011;45117;50.960;5.500;2023-08-06T05:10:43;4.63;;;3.15;;
59338;SDS011;45117;50.960;5.500;2023-08-06T05:13:10;5.25;;;3.42;;
59338;SDS011;45117;50.960;5.500;2023-08-06T05:15:36;5.82;;;3.50;;
59338;SDS011;45117;50.960;5.500;2023-08-06T05:18:04;7.53;;;3.90;;
59338;SDS011;45117;50.960;5.500;2023-08-06T05:20:33;7.35;;;3.63;;
59338;SDS011;45117;50.960;5.500;2023-08-06T05:23:02;3.58;;;2.65;;
59338;SDS011;45117;50.960;5.500;2023-08-06T05:25:29;3.42;;;2.63;;
59338;SDS011;45117;50.960;5.500;2023-08-06T05:27:56;4.15;;;2.67;;
59338;SDS011;45117;50.960;5.500;2023-08-06T05:30:24;2.95;;;2.08;;
59338;SDS011;45117;50.960;5.500;2023-08-06T05:32:50;4.10;;;2.17;;
59338;SDS011;45117;50.960;5.500;2023-08-06T05:35:17;4.20;;;2.25;;
59338;SDS011;45117;50.960;5.500;2023-08-06T05:37:45;4.53;;;2.38;;
59338;SDS011;45117;50.960;5.500;2023-08-06T05:40:12;2.78;;;2.00;;
59338;SDS011;45117;50.960;5.500;2023-08-06T05:42:39;3.10;;;2.10;;
59338;SDS011;45117;50.960;5.500;2023-08-06T05:45:06;3.00;;;2.00;;
59338;SDS011;45117;50.960;5.500;2023-08-06T05:47:33;1.40;;;1.08;;
59338;SDS011;45117;50.960;5.500;2023-08-06T05:50:00;1.65;;;1.15;;
59338;SDS011;45117;50.960;5.500;2023-08-06T05:52:26;1.30;;;0.90;;
59338;SDS011;45117;50.960;5.500;2023-08-06T05:54:54;3.15;;;0.80;;
59338;SDS011;45117;50.960;5.500;2023-08-06T05:57:21;1.27;;;0.70;;
59338;SDS011;45117;50.960;5.500;2023-08-06T05:59:49;2.28;;;0.90;;
59338;SDS011;45117;50.960;5.500;2023-08-06T06:02:15;1.40;;;0.70;;
59338;SDS011;45117;50.960;5.500;2023-08-06T06:04:43;3.50;;;0.70;;
59338;SDS011;45117;50.960;5.500;2023-08-06T06:07:10;1.60;;;0.52;;
59338;SDS011;45117;50.960;5.500;2023-08-06T06:09:38;1.63;;;0.60;;
59338;SDS011;45117;50.960;5.500;2023-08-06T06:12:07;1.30;;;0.60;;
59338;SDS011;45117;50.960;5.500;2023-08-06T06:14:33;1.25;;;0.50;;
59338;SDS011;45117;50.960;5.500;2023-08-06T06:17:00;2.67;;;0.68;;
59338;SDS011;45117;50.960;5.500;2023-08-06T06:19:27;1.20;;;0.60;;
59338;SDS011;45117;50.960;5.500;2023-08-06T06:21:54;1.02;;;0.60;;
59338;SDS011;45117;50.960;5.500;2023-08-06T06:24:24;1.33;;;0.80;;
59338;SDS011;45117;50.960;5.500;2023-08-06T06:26:51;2.58;;;0.75;;
59338;SDS011;45117;50.960;5.500;2023-08-06T06:29:22;2.40;;;0.98;;
59338;SDS011;45117;50.960;5.500;2023-08-06T06:31:49;4.82;;;1.98;;
59338;SDS011;45117;50.960;5.500;2023-08-06T06:34:16;2.38;;;1.55;;
59338;SDS011;45117;50.960;5.500;2023-08-06T06:36:43;2.55;;;1.10;;
59338;SDS011;45117;50.960;5.500;2023-08-06T06:39:09;1.02;;;0.82;;
59338;SDS011;45117;50.960;5.500;2023-08-06T06:41:36;1.73;;;0.70;;
59338;SDS011;45117;50.960;5.500;2023-08-06T06:44:03;0.80;;;0.80;;
59338;SDS011;45117;50.960;5.500;2023-08-06T06:46:31;1.10;;;0.90;;
59338;SDS011;45117;50.960;5.500;2023-08-06T06:48:58;0.82;;;0.80;;
59338;SDS011;45117;50.960;5.500;2023-08-06T06:51:25;1.25;;;1.00;;
59338;SDS011;45117;50.960;5.500;2023-08-06T06:53:52;2.42;;;1.13;;
59338;SDS011;45117;50.960;5.500;2023-08-06T06:56:20;1.70;;;1.10;;
59338;SDS011;45117;50.960;5.500;2023-08-06T06:58:47;3.53;;;1.60;;
59338;SDS011;45117;50.960;5.500;2023-08-06T07:01:14;2.38;;;1.77;;
59338;SDS011;45117;50.960;5.500;2023-08-06T07:03:46;3.47;;;2.20;;
59338;SDS011;45117;50.960;5.500;2023-08-06T07:06:13;3.83;;;2.40;;
59338;SDS011;45117;50.960;5.500;2023-08-06T07:08:43;4.97;;;2.13;;
59338;SDS011;45117;50.960;5.500;2023-08-06T07:11:10;4.90;;;2.55;;
59338;SDS011;45117;50.960;5.500;2023-08-06T07:13:44;3.30;;;2.30;;
59338;SDS011;45117;50.960;5.500;2023-08-06T07:16:31;6.25;;;2.70;;
59338;SDS011;45117;50.960;5.500;2023-08-06T07:19:00;4.15;;;2.65;;
59338;SDS011;45117;50.960;5.500;2023-08-06T07:21:32;3.47;;;2.28;;
59338;SDS011;45117;50.960;5.500;2023-08-06T07:23:59;5.63;;;3.10;;
59338;SDS011;45117;50.960;5.500;2023-08-06T07:26:25;3.22;;;2.58;;
59338;SDS011;45117;50.960;5.500;2023-08-06T07:28:52;3.35;;;2.63;;
59338;SDS011;45117;50.960;5.500;2023-08-06T07:31:21;4.07;;;3.13;;
59338;SDS011;45117;50.960;5.500;2023-08-06T07:33:50;4.18;;;2.95;;
59338;SDS011;45117;50.960;5.500;2023-08-06T07:36:18;3.53;;;2.70;;
59338;SDS011;45117;50.960;5.500;2023-08-06T07:38:46;3.95;;;2.92;;
59338;SDS011;45117;50.960;5.500;2023-08-06T07:41:15;3.65;;;2.83;;
59338;SDS011;45117;50.960;5.500;2023-08-06T07:43:43;4.57;;;3.15;;
59338;SDS011;45117;50.960;5.500;2023-08-06T07:46:10;4.38;;;3.08;;
59338;SDS011;45117;50.960;5.500;2023-08-06T07:48:41;4.95;;;3.20;;
59338;SDS011;45117;50.960;5.500;2023-08-06T07:51:10;6.28;;;2.85;;
59338;SDS011;45117;50.960;5.500;2023-08-06T07:53:38;4.32;;;2.47;;
59338;SDS011;45117;50.960;5.500;2023-08-06T07:56:05;5.55;;;2.30;;
59338;SDS011;45117;50.960;5.500;2023-08-06T07:58:32;4.45;;;2.25;;
59338;SDS011;45117;50.960;5.500;2023-08-06T08:00:58;4.03;;;1.85;;
59338;SDS011;45117;50.960;5.500;2023-08-06T08:03:25;3.53;;;1.75;;
59338;SDS011;45117;50.960;5.500;2023-08-06T08:05:54;3.92;;;1.92;;
59338;SDS011;45117;50.960;5.500;2023-08-06T08:08:23;4.45;;;1.77;;
59338;SDS011;45117;50.960;5.500;2023-08-06T08:10:51;4.55;;;1.88;;
59338;SDS011;45117;50.960;5.500;2023-08-06T08:13:20;4.80;;;1.90;;
59338;SDS011;45117;50.960;5.500;2023-08-06T08:15:47;4.68;;;2.00;;
59338;SDS011;45117;50.960;5.500;2023-08-06T08:18:13;4.05;;;1.73;;
59338;SDS011;45117;50.960;5.500;2023-08-06T08:20:40;7.95;;;1.90;;
59338;SDS011;45117;50.960;5.500;2023-08-06T08:23:09;4.78;;;2.05;;
59338;SDS011;45117;50.960;5.500;2023-08-06T08:25:36;5.50;;;2.50;;
59338;SDS011;45117;50.960;5.500;2023-08-06T08:28:04;8.48;;;2.30;;
59338;SDS011;45117;50.960;5.500;2023-08-06T08:30:31;6.65;;;2.10;;
59338;SDS011;45117;50.960;5.500;2023-08-06T08:32:57;6.68;;;2.15;;
59338;SDS011;45117;50.960;5.500;2023-08-06T08:35:24;3.83;;;2.00;;
59338;SDS011;45117;50.960;5.500;2023-08-06T08:37:51;6.07;;;2.30;;
59338;SDS011;45117;50.960;5.500;2023-08-06T08:40:18;5.97;;;2.20;;
59338;SDS011;45117;50.960;5.500;2023-08-06T08:42:46;6.68;;;2.30;;
59338;SDS011;45117;50.960;5.500;2023-08-06T08:45:17;5.78;;;2.40;;
59338;SDS011;45117;50.960;5.500;2023-08-06T08:47:48;2.95;;;1.50;;
59338;SDS011;45117;50.960;5.500;2023-08-06T08:50:15;7.70;;;2.10;;
59338;SDS011;45117;50.960;5.500;2023-08-06T08:52:44;5.07;;;1.90;;
59338;SDS011;45117;50.960;5.500;2023-08-06T08:55:14;6.03;;;1.85;;
59338;SDS011;45117;50.960;5.500;2023-08-06T08:57:41;5.35;;;1.77;;
59338;SDS011;45117;50.960;5.500;2023-08-06T09:00:08;4.85;;;1.50;;
59338;SDS011;45117;50.960;5.500;2023-08-06T09:02:37;4.38;;;1.83;;
59338;SDS011;45117;50.960;5.500;2023-08-06T09:05:05;5.25;;;1.80;;
59338;SDS011;45117;50.960;5.500;2023-08-06T09:07:35;6.35;;;1.80;;
59338;SDS011;45117;50.960;5.500;2023-08-06T09:10:07;9.55;;;1.70;;
59338;SDS011;45117;50.960;5.500;2023-08-06T09:12:38;6.80;;;1.90;;
59338;SDS011;45117;50.960;5.500;2023-08-06T09:15:05;8.25;;;1.83;;
59338;SDS011;45117;50.960;5.500;2023-08-06T09:17:33;5.32;;;1.70;;
59338;SDS011;45117;50.960;5.500;2023-08-06T09:20:05;8.02;;;1.80;;
59338;SDS011;45117;50.960;5.500;2023-08-06T09:22:35;7.25;;;1.65;;
59338;SDS011;45117;50.960;5.500;2023-08-06T09:25:02;2.50;;;1.25;;
59338;SDS011;45117;50.960;5.500;2023-08-06T09:27:34;5.18;;;1.83;;
59338;SDS011;45117;50.960;5.500;2023-08-06T09:30:01;7.18;;;1.63;;
59338;SDS011;45117;50.960;5.500;2023-08-06T09:32:30;6.40;;;1.85;;
59338;SDS011;45117;50.960;5.500;2023-08-06T09:35:14;7.22;;;1.92;;
59338;SDS011;45117;50.960;5.500;2023-08-06T09:37:43;4.97;;;1.60;;
59338;SDS011;45117;50.960;5.500;2023-08-06T09:40:26;7.63;;;1.65;;
59338;SDS011;45117;50.960;5.500;2023-08-06T09:42:53;7.53;;;1.50;;
59338;SDS011;45117;50.960;5.500;2023-08-06T09:45:20;6.93;;;1.52;;
59338;SDS011;45117;50.960;5.500;2023-08-06T09:47:48;7.82;;;1.63;;
59338;SDS011;45117;50.960;5.500;2023-08-06T09:50:16;8.45;;;1.60;;
59338;SDS011;45117;50.960;5.500;2023-08-06T09:52:44;8.35;;;1.63;;
59338;SDS011;45117;50.960;5.500;2023-08-06T09:55:11;7.90;;;1.42;;
59338;SDS011;45117;50.960;5.500;2023-08-06T09:57:38;7.57;;;1.52;;
59338;SDS011;45117;50.960;5.500;2023-08-06T10:00:06;6.55;;;1.35;;
59338;SDS011;45117;50.960;5.500;2023-08-06T10:02:37;6.63;;;1.40;;
59338;SDS011;45117;50.960;5.500;2023-08-06T10:05:04;6.32;;;1.38;;
59338;SDS011;45117;50.960;5.500;2023-08-06T10:07:33;5.03;;;1.48;;
59338;SDS011;45117;50.960;5.500;2023-08-06T10:10:04;4.85;;;1.13;;
59338;SDS011;45117;50.960;5.500;2023-08-06T10:12:32;6.97;;;1.30;;
59338;SDS011;45117;50.960;5.500;2023-08-06T10:15:03;7.68;;;1.27;;
59338;SDS011;45117;50.960;5.500;2023-08-06T10:17:34;5.07;;;1.25;;
59338;SDS011;45117;50.960;5.500;2023-08-06T10:20:07;7.10;;;1.33;;
59338;SDS011;45117;50.960;5.500;2023-08-06T10:22:38;5.43;;;1.23;;
59338;SDS011;45117;50.960;5.500;2023-08-06T10:25:09;6.72;;;1.38;;
59338;SDS011;45117;50.960;5.500;2023-08-06T10:27:40;3.92;;;1.30;;
59338;SDS011;45117;50.960;5.500;2023-08-06T10:30:22;7.68;;;1.48;;
59338;SDS011;45117;50.960;5.500;2023-08-06T10:32:50;4.05;;;1.30;;
59338;SDS011;45117;50.960;5.500;2023-08-06T10:35:45;3.45;;;1.20;;
59338;SDS011;45117;50.960;5.500;2023-08-06T10:38:16;3.83;;;1.25;;
59338;SDS011;45117;50.960;5.500;2023-08-06T10:40:48;3.78;;;1.25;;
59338;SDS011;45117;50.960;5.500;2023-08-06T10:43:42;3.28;;;0.80;;
59338;SDS011;45117;50.960;5.500;2023-08-06T10:46:10;5.43;;;1.17;;
59338;SDS011;45117;50.960;5.500;2023-08-06T10:48:38;3.58;;;0.85;;
59338;SDS011;45117;50.960;5.500;2023-08-06T10:51:07;4.22;;;0.88;;
59338;SDS011;45117;50.960;5.500;2023-08-06T10:53:42;4.68;;;1.00;;
59338;SDS011;45117;50.960;5.500;2023-08-06T10:56:12;3.67;;;1.00;;
59338;SDS011;45117;50.960;5.500;2023-08-06T10:58:40;3.58;;;1.00;;
59338;SDS011;45117;50.960;5.500;2023-08-06T11:01:07;2.78;;;1.13;;
59338;SDS011;45117;50.960;5.500;2023-08-06T11:03:34;4.00;;;1.20;;
59338;SDS011;45117;50.960;5.500;2023-08-06T11:06:00;4.18;;;0.80;;
59338;SDS011;45117;50.960;5.500;2023-08-06T11:08:28;2.78;;;0.80;;
59338;SDS011;45117;50.960;5.500;2023-08-06T11:11:11;4.00;;;0.80;;
59338;SDS011;45117;50.960;5.500;2023-08-06T11:13:39;2.42;;;0.88;;
59338;SDS011;45117;50.960;5.500;2023-08-06T11:16:05;4.82;;;0.90;;
59338;SDS011;45117;50.960;5.500;2023-08-06T11:18:32;5.28;;;1.10;;
59338;SDS011;45117;50.960;5.500;2023-08-06T11:27:55;2.55;;;0.93;;
59338;SDS011;45117;50.960;5.500;2023-08-06T11:30:26;4.15;;;1.00;;
59338;SDS011;45117;50.960;5.500;2023-08-06T11:32:58;2.35;;;0.90;;
59338;SDS011;45117;50.960;5.500;2023-08-06T11:35:26;5.18;;;0.95;;
59338;SDS011;45117;50.960;5.500;2023-08-06T11:37:53;4.30;;;1.10;;
59338;SDS011;45117;50.960;5.500;2023-08-06T11:40:20;4.43;;;0.95;;
59338;SDS011;45117;50.960;5.500;2023-08-06T11:42:47;2.40;;;1.13;;
59338;SDS011;45117;50.960;5.500;2023-08-06T11:52:09;2.70;;;0.70;;
59338;SDS011;45117;50.960;5.500;2023-08-06T11:55:07;2.95;;;0.75;;
59338;SDS011;45117;50.960;5.500;2023-08-06T11:57:39;3.10;;;1.00;;
59338;SDS011;45117;50.960;5.500;2023-08-06T12:00:17;4.97;;;0.90;;
59338;SDS011;45117;50.960;5.500;2023-08-06T12:02:50;5.15;;;0.90;;
59338;SDS011;45117;50.960;5.500;2023-08-06T12:05:20;3.88;;;1.00;;
59338;SDS011;45117;50.960;5.500;2023-08-06T12:08:00;5.35;;;1.13;;
59338;SDS011;45117;50.960;5.500;2023-08-06T12:10:29;7.43;;;1.20;;
59338;SDS011;45117;50.960;5.500;2023-08-06T12:13:20;4.60;;;1.00;;
59338;SDS011;45117;50.960;5.500;2023-08-06T12:15:47;5.68;;;1.02;;
59338;SDS011;45117;50.960;5.500;2023-08-06T12:18:18;3.40;;;1.10;;
59338;SDS011;45117;50.960;5.500;2023-08-06T12:20:48;4.10;;;1.23;;
59338;SDS011;45117;50.960;5.500;2023-08-06T12:23:18;3.40;;;1.10;;
59338;SDS011;45117;50.960;5.500;2023-08-06T12:25:48;4.85;;;1.00;;
59338;SDS011;45117;50.960;5.500;2023-08-06T12:28:20;1.60;;;0.55;;
59338;SDS011;45117;50.960;5.500;2023-08-06T12:30:47;3.08;;;0.70;;
59338;SDS011;45117;50.960;5.500;2023-08-06T12:33:48;1.42;;;0.70;;
59338;SDS011;45117;50.960;5.500;2023-08-06T12:36:18;4.05;;;0.70;;
59338;SDS011;45117;50.960;5.500;2023-08-06T12:38:47;3.88;;;0.88;;
59338;SDS011;45117;50.960;5.500;2023-08-06T12:41:14;2.78;;;1.00;;
59338;SDS011;45117;50.960;5.500;2023-08-06T12:43:40;2.67;;;0.68;;
59338;SDS011;45117;50.960;5.500;2023-08-06T12:46:07;3.05;;;0.68;;
59338;SDS011;45117;50.960;5.500;2023-08-06T12:48:35;3.30;;;0.75;;
59338;SDS011;45117;50.960;5.500;2023-08-06T12:51:01;4.30;;;0.75;;
59338;SDS011;45117;50.960;5.500;2023-08-06T12:53:28;3.10;;;0.70;;
59338;SDS011;45117;50.960;5.500;2023-08-06T12:56:04;2.28;;;0.80;;
59338;SDS011;45117;50.960;5.500;2023-08-06T12:58:30;3.63;;;0.75;;
59338;SDS011;45117;50.960;5.500;2023-08-06T13:00:58;3.10;;;0.80;;
59338;SDS011;45117;50.960;5.500;2023-08-06T13:03:29;3.80;;;0.73;;
59338;SDS011;45117;50.960;5.500;2023-08-06T13:05:55;3.95;;;0.75;;
59338;SDS011;45117;50.960;5.500;2023-08-06T13:08:23;3.00;;;0.80;;
59338;SDS011;45117;50.960;5.500;2023-08-06T13:10:52;4.88;;;0.77;;
59338;SDS011;45117;50.960;5.500;2023-08-06T13:13:20;3.97;;;0.88;;
59338;SDS011;45117;50.960;5.500;2023-08-06T13:15:46;3.72;;;0.90;;
59338;SDS011;45117;50.960;5.500;2023-08-06T13:18:13;5.50;;;1.00;;
59338;SDS011;45117;50.960;5.500;2023-08-06T13:20:40;3.40;;;1.00;;
59338;SDS011;45117;50.960;5.500;2023-08-06T13:23:06;3.85;;;1.05;;
59338;SDS011;45117;50.960;5.500;2023-08-06T13:25:33;4.95;;;0.80;;
59338;SDS011;45117;50.960;5.500;2023-08-06T13:28:02;4.40;;;0.75;;
59338;SDS011;45117;50.960;5.500;2023-08-06T13:30:30;3.28;;;0.77;;
59338;SDS011;45117;50.960;5.500;2023-08-06T13:32:57;3.03;;;0.65;;
59338;SDS011;45117;50.960;5.500;2023-08-06T13:35:23;3.85;;;0.70;;
59338;SDS011;45117;50.960;5.500;2023-08-06T13:37:50;3.13;;;0.60;;
59338;SDS011;45117;50.960;5.500;2023-08-06T13:40:16;2.47;;;0.80;;
59338;SDS011;45117;50.960;5.500;2023-08-06T13:42:46;2.92;;;0.73;;
59338;SDS011;45117;50.960;5.500;2023-08-06T13:45:12;2.38;;;0.80;;
59338;SDS011;45117;50.960;5.500;2023-08-06T13:47:40;2.65;;;0.50;;
59338;SDS011;45117;50.960;5.500;2023-08-06T13:50:07;1.48;;;0.50;;
59338;SDS011;45117;50.960;5.500;2023-08-06T13:52:34;1.45;;;0.60;;
59338;SDS011;45117;50.960;5.500;2023-08-06T13:55:03;2.47;;;0.60;;
59338;SDS011;45117;50.960;5.500;2023-08-06T13:57:32;3.15;;;0.70;;
59338;SDS011;45117;50.960;5.500;2023-08-06T13:59:59;1.65;;;0.60;;
59338;SDS011;45117;50.960;5.500;2023-08-06T14:02:29;4.78;;;0.70;;
59338;SDS011;45117;50.960;5.500;2023-08-06T14:04:57;2.58;;;0.63;;
59338;SDS011;45117;50.960;5.500;2023-08-06T14:07:26;1.90;;;0.73;;
59338;SDS011;45117;50.960;5.500;2023-08-06T14:09:53;2.30;;;0.60;;
59338;SDS011;45117;50.960;5.500;2023-08-06T14:12:22;2.03;;;0.77;;
59338;SDS011;45117;50.960;5.500;2023-08-06T14:14:50;2.88;;;0.90;;
59338;SDS011;45117;50.960;5.500;2023-08-06T14:17:17;1.88;;;0.50;;
59338;SDS011;45117;50.960;5.500;2023-08-06T14:19:46;4.78;;;0.70;;
59338;SDS011;45117;50.960;5.500;2023-08-06T14:22:14;3.55;;;0.80;;
59338;SDS011;45117;50.960;5.500;2023-08-06T14:24:41;2.97;;;0.63;;
59338;SDS011;45117;50.960;5.500;2023-08-06T14:27:08;2.47;;;1.00;;
59338;SDS011;45117;50.960;5.500;2023-08-06T14:29:37;3.08;;;1.27;;
59338;SDS011;45117;50.960;5.500;2023-08-06T14:32:04;2.17;;;0.70;;
59338;SDS011;45117;50.960;5.500;2023-08-06T14:34:31;4.60;;;1.00;;
59338;SDS011;45117;50.960;5.500;2023-08-06T14:36:57;4.90;;;0.88;;
59338;SDS011;45117;50.960;5.500;2023-08-06T14:39:26;3.13;;;0.70;;
59338;SDS011;45117;50.960;5.500;2023-08-06T14:41:53;3.22;;;0.70;;
59338;SDS011;45117;50.960;5.500;2023-08-06T14:44:20;1.83;;;0.80;;
59338;SDS011;45117;50.960;5.500;2023-08-06T14:46:48;1.15;;;0.60;;
59338;SDS011;45117;50.960;5.500;2023-08-06T14:49:16;2.15;;;0.65;;
59338;SDS011;45117;50.960;5.500;2023-08-06T14:51:43;1.90;;;0.68;;
59338;SDS011;45117;50.960;5.500;2023-08-06T14:54:10;2.35;;;0.70;;
59338;SDS011;45117;50.960;5.500;2023-08-06T14:56:38;2.15;;;0.60;;
59338;SDS011;45117;50.960;5.500;2023-08-06T14:59:05;0.90;;;0.40;;
59338;SDS011;45117;50.960;5.500;2023-08-06T15:01:31;1.60;;;0.30;;
59338;SDS011;45117;50.960;5.500;2023-08-06T15:03:59;1.60;;;0.30;;
59338;SDS011;45117;50.960;5.500;2023-08-06T15:06:27;0.98;;;0.20;;
59338;SDS011;45117;50.960;5.500;2023-08-06T15:08:54;0.75;;;0.28;;
59338;SDS011;45117;50.960;5.500;2023-08-06T15:11:23;3.38;;;0.40;;
59338;SDS011;45117;50.960;5.500;2023-08-06T15:13:52;2.25;;;0.40;;
59338;SDS011;45117;50.960;5.500;2023-08-06T15:16:18;1.27;;;0.40;;